Time;durP1;ratioP1;P1;durP2;ratioP2;P2;SDS_P1;SDS_P2;PMS_P1;PMS_P2;Temp;Humidity;BMP_temperature;BMP_pressure;BME280_temperature;BME280_humidity;BME280_pressure;Samples;Min_cycle;Max_cycle;Signal;HPM_P1;HPM_P2
2020/12/13 00:01:18;;;;;;;8.33;6.60;;;;;;;8.53;95.91;95362.69;5072865;28;20175;-65
2020/12/13 00:03:43;;;;;;;6.90;6.30;;;;;;;8.54;95.94;95350.38;5071637;28;20165;-66
2020/12/13 00:06:08;;;;;;;6.27;5.67;;;;;;;8.45;96.36;95359.66;5072994;28;20173;-66
2020/12/13 00:08:34;;;;;;;6.93;6.43;;;;;;;8.48;96.11;95359.22;5073956;28;20193;-66
2020/12/13 00:10:59;;;;;;;8.30;7.07;;;;;;;8.42;96.29;95357.53;5093146;28;20229;-66
2020/12/13 00:13:24;;;;;;;6.83;6.13;;;;;;;8.47;96.48;95365.44;5093505;28;20198;-66
2020/12/13 00:15:50;;;;;;;6.10;5.70;;;;;;;8.45;96.64;95370.13;5076807;28;20248;-66
2020/12/13 00:18:15;;;;;;;6.07;5.27;;;;;;;8.39;96.87;95371.88;5076257;28;20532;-66
2020/12/13 00:20:41;;;;;;;6.90;6.07;;;;;;;8.25;97.44;95370.59;5076482;28;20201;-66
2020/12/13 00:23:06;;;;;;;5.40;5.00;;;;;;;8.48;96.54;95365.22;5076742;28;20184;-66
2020/12/13 00:25:32;;;;;;;5.60;5.10;;;;;;;8.67;96.08;95369.22;5086065;28;20176;-66
2020/12/13 00:27:57;;;;;;;6.53;5.87;;;;;;;8.71;95.43;95378.19;5094444;28;20181;-66
2020/12/13 00:30:23;;;;;;;6.60;6.10;;;;;;;8.87;94.67;95374.75;5095968;28;20203;-66
2020/12/13 00:32:48;;;;;;;5.23;4.80;;;;;;;8.87;93.96;95372.16;5083460;28;20638;-67
2020/12/13 00:35:14;;;;;;;5.13;4.73;;;;;;;8.65;94.17;95383.56;5078916;28;20671;-66
2020/12/13 00:37:39;;;;;;;5.23;4.80;;;;;;;8.63;94.63;95385.63;5087900;28;20216;-66
2020/12/13 00:40:05;;;;;;;5.40;4.90;;;;;;;8.62;95.20;95384.03;5076318;28;20210;-66
2020/12/13 00:42:30;;;;;;;4.67;4.27;;;;;;;8.70;94.26;95383.63;5086874;28;20180;-66
2020/12/13 00:44:56;;;;;;;5.30;4.67;;;;;;;8.59;94.42;95384.53;5076102;28;20180;-66
2020/12/13 00:47:21;;;;;;;6.20;5.10;;;;;;;8.74;94.15;95388.16;5076691;28;20265;-66
2020/12/13 00:49:46;;;;;;;5.13;4.73;;;;;;;8.74;93.64;95387.38;5096102;28;20644;-66
2020/12/13 00:52:12;;;;;;;5.90;5.40;;;;;;;8.54;94.17;95390.47;5096228;28;20169;-66
2020/12/13 00:54:37;;;;;;;5.20;4.57;;;;;;;8.37;95.50;95389.63;5094482;28;20169;-66
2020/12/13 00:57:03;;;;;;;5.70;5.00;;;;;;;8.17;96.34;95400.50;5093347;28;20169;-67
2020/12/13 00:59:28;;;;;;;5.10;4.40;;;;;;;8.11;96.70;95401.47;5075981;28;20732;-66
2020/12/13 01:01:53;;;;;;;5.03;4.63;;;;;;;7.89;97.75;95397.09;5075193;28;20179;-66
2020/12/13 01:04:19;;;;;;;5.47;4.97;;;;;;;7.82;98.98;95404.28;5075842;28;20190;-66
2020/12/13 01:06:44;;;;;;;5.10;4.70;;;;;;;7.81;99.39;95413.16;5076121;28;20166;-66
2020/12/13 01:09:09;;;;;;;4.97;4.57;;;;;;;7.75;98.99;95404.41;5081617;28;20237;-66
2020/12/13 01:11:35;;;;;;;4.97;4.57;;;;;;;7.57;100.00;95419.44;5094115;28;20668;-66
2020/12/13 01:14:01;;;;;;;5.10;4.70;;;;;;;7.44;100.00;95422.31;5077770;28;20644;-66
2020/12/13 01:16:28;;;;;;;4.43;4.13;;;;;;;7.45;100.00;95427.28;5074969;28;20174;-67
2020/12/13 01:18:53;;;;;;;4.77;4.47;;;;;;;7.37;100.00;95429.47;5086068;28;20447;-66
2020/12/13 01:21:21;;;;;;;4.80;4.40;;;;;;;7.48;100.00;95429.47;5074551;28;20854;-66
2020/12/13 01:23:47;;;;;;;6.37;5.07;;;;;;;7.58;100.00;95427.06;5091106;28;20173;-66
2020/12/13 01:26:17;;;;;;;8.67;5.00;;;;;;;7.80;99.33;95429.84;5095729;28;20401;-66
2020/12/13 01:28:43;;;;;;;5.37;4.97;;;;;;;7.76;99.14;95429.53;5094959;28;20482;-66
2020/12/13 01:31:13;;;;;;;5.57;5.03;;;;;;;7.75;99.58;95440.22;5092655;28;20420;-66
2020/12/13 01:33:38;;;;;;;4.60;4.30;;;;;;;7.81;98.80;95439.31;5075706;28;20173;-66
2020/12/13 01:36:04;;;;;;;4.67;4.27;;;;;;;7.67;99.46;95443.97;5075196;28;20412;-66
2020/12/13 01:38:30;;;;;;;5.00;4.60;;;;;;;7.72;99.54;95436.22;5091767;28;20182;-66
2020/12/13 01:40:59;;;;;;;5.03;4.47;;;;;;;7.69;99.43;95441.94;5081526;28;20375;-66
2020/12/13 01:43:25;;;;;;;5.07;4.70;;;;;;;7.81;99.08;95447.91;5075372;28;20166;-66
2020/12/13 01:45:51;;;;;;;5.40;4.90;;;;;;;7.68;99.50;95450.78;5075115;28;20508;-66
2020/12/13 01:48:17;;;;;;;5.20;4.50;;;;;;;7.67;99.83;95458.84;5074545;28;20222;-66
2020/12/13 01:50:57;;;;;;;5.13;4.73;;;;;;;7.59;100.00;95461.84;5078437;28;20553;-66
2020/12/13 01:53:26;;;;;;;5.00;4.60;;;;;;;7.53;100.00;95460.13;5095292;28;20413;-66
2020/12/13 01:55:56;;;;;;;5.53;5.03;;;;;;;7.70;100.00;95455.81;5079774;28;20903;-66
2020/12/13 01:58:28;;;;;;;5.43;5.00;;;;;;;7.79;99.10;95454.44;5074345;28;20952;-66
2020/12/13 02:00:56;;;;;;;4.90;4.50;;;;;;;7.77;99.53;95464.31;5074553;28;20434;-66
2020/12/13 02:03:23;;;;;;;5.07;4.63;;;;;;;7.71;99.05;95458.19;5074640;28;20865;-66
2020/12/13 02:06:01;;;;;;;4.53;4.23;;;;;;;7.77;99.05;95464.31;5081652;28;20424;-66
2020/12/13 02:08:39;;;;;;;5.57;5.17;;;;;;;7.94;98.82;95465.97;5094166;28;20424;-66
2020/12/13 02:11:05;;;;;;;4.73;4.33;;;;;;;8.03;97.45;95459.34;5075375;28;20404;-66
2020/12/13 02:13:30;;;;;;;4.40;4.00;;;;;;;7.92;97.91;95470.63;5074391;28;20420;-66
2020/12/13 02:15:55;;;;;;;5.07;4.67;;;;;;;8.09;97.27;95482.00;5074438;28;20163;-66
2020/12/13 02:18:22;;;;;;;4.70;4.30;;;;;;;7.87;98.13;95481.00;5074549;28;20180;-66
2020/12/13 02:20:47;;;;;;;4.90;4.50;;;;;;;7.89;98.86;95484.19;5075202;28;20252;-66
2020/12/13 02:23:13;;;;;;;4.87;4.47;;;;;;;7.92;98.10;95488.94;5074239;28;20405;-66
2020/12/13 02:25:39;;;;;;;5.10;4.57;;;;;;;7.82;99.27;95478.28;5074575;28;20582;-66
2020/12/13 02:28:04;;;;;;;4.00;3.80;;;;;;;7.95;98.76;95487.69;5073659;28;20184;-68
2020/12/13 02:30:30;;;;;;;4.10;3.80;;;;;;;8.22;97.28;95479.09;5074144;28;20183;-66
2020/12/13 02:32:55;;;;;;;4.00;3.70;;;;;;;7.92;98.28;95490.75;5076739;28;20229;-67
2020/12/13 02:35:22;;;;;;;5.50;4.97;;;;;;;7.84;99.84;95494.56;5094424;28;20516;-66
2020/12/13 02:37:47;;;;;;;4.00;3.70;;;;;;;7.89;99.17;95494.66;5093951;28;20168;-66
2020/12/13 02:40:12;;;;;;;3.80;3.50;;;;;;;7.97;98.83;95496.88;5094090;28;20457;-66
2020/12/13 02:42:38;;;;;;;3.90;3.60;;;;;;;7.72;100.00;95503.44;5093987;28;20164;-66
2020/12/13 02:45:04;;;;;;;3.77;3.47;;;;;;;7.90;99.96;95496.22;5094327;28;20171;-66
2020/12/13 02:47:29;;;;;;;4.10;3.70;;;;;;;8.05;98.83;95503.59;5083086;28;20178;-66
2020/12/13 02:49:55;;;;;;;3.87;3.57;;;;;;;8.15;97.66;95512.44;5073305;28;20438;-66
2020/12/13 02:52:20;;;;;;;4.63;4.20;;;;;;;8.15;97.77;95506.44;5073867;28;20187;-66
2020/12/13 02:54:45;;;;;;;3.97;3.67;;;;;;;8.10;97.70;95514.94;5073793;28;20166;-66
2020/12/13 02:57:11;;;;;;;4.20;3.90;;;;;;;8.40;97.48;95514.00;5071989;28;20173;-66
2020/12/13 02:59:36;;;;;;;4.20;3.90;;;;;;;8.38;96.32;95518.66;5073349;28;20278;-66
2020/12/13 03:02:02;;;;;;;4.03;3.73;;;;;;;8.32;96.45;95523.00;5074864;28;20186;-66
2020/12/13 03:04:27;;;;;;;4.40;4.10;;;;;;;8.33;96.02;95522.78;5073009;28;20234;-67
2020/12/13 03:06:52;;;;;;;5.43;4.00;;;;;;;8.35;96.29;95513.91;5073179;28;20173;-66
2020/12/13 03:09:18;;;;;;;4.57;4.17;;;;;;;8.28;96.65;95514.81;5073509;28;20185;-66
2020/12/13 03:11:43;;;;;;;4.97;4.57;;;;;;;8.54;95.70;95513.50;5073253;28;20634;-66
2020/12/13 03:14:09;;;;;;;4.97;4.57;;;;;;;8.31;96.14;95513.56;5074179;28;20208;-66
2020/12/13 03:16:34;;;;;;;5.03;4.60;;;;;;;8.33;96.60;95522.00;5093194;28;20171;-66
2020/12/13 03:18:59;;;;;;;5.37;4.50;;;;;;;8.21;96.63;95516.75;5093539;28;20212;-66
2020/12/13 03:21:25;;;;;;;5.40;4.70;;;;;;;8.10;98.03;95524.63;5093677;28;20494;-66
2020/12/13 03:23:50;;;;;;;5.30;4.80;;;;;;;8.13;97.70;95529.41;5093366;28;20168;-66
2020/12/13 03:26:16;;;;;;;5.13;4.70;;;;;;;7.99;98.64;95526.22;5093418;28;20561;-67
2020/12/13 03:28:41;;;;;;;5.43;4.93;;;;;;;8.01;98.68;95526.81;5080851;28;20179;-66
2020/12/13 03:31:06;;;;;;;5.97;5.37;;;;;;;8.05;98.31;95524.50;5073306;28;20203;-66
2020/12/13 03:33:32;;;;;;;4.70;4.30;;;;;;;8.04;97.69;95523.72;5073324;28;20173;-66
2020/12/13 03:35:57;;;;;;;5.13;4.73;;;;;;;8.00;97.90;95533.06;5073321;28;20164;-66
2020/12/13 03:38:23;;;;;;;5.23;4.80;;;;;;;8.04;98.32;95541.25;5072720;28;20159;-66
2020/12/13 03:40:48;;;;;;;5.07;4.67;;;;;;;8.03;97.50;95543.06;5072929;28;20247;-66
2020/12/13 03:43:13;;;;;;;4.83;4.40;;;;;;;8.03;97.61;95544.88;5077048;28;20184;-66
2020/12/13 03:45:39;;;;;;;5.27;4.80;;;;;;;8.14;97.16;95542.25;5079588;28;20525;-66
2020/12/13 03:48:04;;;;;;;5.70;5.30;;;;;;;8.19;96.82;95547.56;5079607;28;20168;-67
2020/12/13 03:50:38;;;;;;;7.30;5.30;;;;;;;8.12;97.28;95552.16;5079768;28;20283;-66
2020/12/13 03:53:12;;;;;;;5.80;5.30;;;;;;;8.11;97.14;95550.56;5079631;28;20750;-66
2020/12/13 03:55:38;;;;;;;6.57;4.80;;;;;;;8.25;96.53;95559.78;5080823;28;20447;-66
2020/12/13 03:58:04;;;;;;;11.53;5.30;;;;;;;8.20;96.73;95561.47;5093799;28;20424;-66
2020/12/13 04:00:30;;;;;;;5.07;4.67;;;;;;;8.22;96.67;95568.03;5079578;28;20458;-66
2020/12/13 04:02:56;;;;;;;5.43;4.93;;;;;;;8.23;95.75;95580.13;5079567;28;20428;-66
2020/12/13 04:05:23;;;;;;;5.70;5.00;;;;;;;8.22;96.18;95572.50;5079686;28;20509;-66
2020/12/13 04:07:50;;;;;;;4.70;4.30;;;;;;;8.20;96.67;95587.63;5079152;28;20196;-66
2020/12/13 04:10:15;;;;;;;5.47;4.97;;;;;;;8.16;97.05;95584.69;5079185;28;20560;-67
2020/12/13 04:12:41;;;;;;;5.13;4.63;;;;;;;8.08;97.06;95585.00;5094484;28;20501;-66
2020/12/13 04:15:07;;;;;;;4.67;4.27;;;;;;;8.25;97.12;95585.16;5079443;28;20206;-66
2020/12/13 04:17:32;;;;;;;4.60;4.20;;;;;;;8.18;96.46;95593.09;5079146;28;20173;-66
2020/12/13 04:19:58;;;;;;;5.77;4.80;;;;;;;8.24;96.14;95589.56;5079254;28;20460;-66
2020/12/13 04:22:23;;;;;;;4.40;4.00;;;;;;;8.22;96.36;95599.44;5079795;28;20171;-66
2020/12/13 04:24:48;;;;;;;4.60;3.80;;;;;;;8.27;96.50;95604.03;5094496;28;20506;-66
2020/12/13 04:27:14;;;;;;;4.63;4.23;;;;;;;8.19;96.39;95604.34;5099113;28;20173;-66
2020/12/13 04:29:39;;;;;;;5.10;4.60;;;;;;;8.46;95.95;95607.31;5082931;28;20254;-66
2020/12/13 04:32:05;;;;;;;4.70;4.30;;;;;;;8.25;96.17;95612.13;5079454;28;20168;-66
2020/12/13 04:34:31;;;;;;;3.83;3.53;;;;;;;7.90;97.80;95607.91;5079280;28;20160;-66
2020/12/13 04:36:59;;;;;;;4.67;3.90;;;;;;;7.82;99.03;95610.84;5079050;28;20413;-66
2020/12/13 04:39:24;;;;;;;4.23;3.63;;;;;;;8.00;97.72;95610.72;5080060;28;20282;-66
2020/12/13 04:41:50;;;;;;;4.03;3.63;;;;;;;7.96;98.49;95612.19;5079470;28;20406;-66
2020/12/13 04:44:15;;;;;;;4.23;3.90;;;;;;;8.11;97.75;95617.78;5078897;28;20172;-66
2020/12/13 04:46:45;;;;;;;3.90;3.60;;;;;;;7.89;98.90;95614.13;5078900;28;20173;-67
2020/12/13 04:49:11;;;;;;;4.33;4.03;;;;;;;8.15;97.81;95619.69;5078739;28;20191;-66
2020/12/13 04:51:40;;;;;;;4.70;4.00;;;;;;;8.23;97.25;95616.75;5079108;28;20409;-66
2020/12/13 04:54:06;;;;;;;3.70;3.40;;;;;;;8.03;98.10;95624.16;5077778;28;20454;-66
2020/12/13 04:56:34;;;;;;;3.40;3.13;;;;;;;8.21;97.79;95613.56;5075201;28;20412;-67
2020/12/13 04:59:05;;;;;;;4.80;4.10;;;;;;;8.33;96.54;95622.22;5075916;28;20952;-66
2020/12/13 05:01:30;;;;;;;3.50;3.20;;;;;;;8.45;96.50;95622.22;5075980;28;20780;-66
2020/12/13 05:03:56;;;;;;;3.80;3.50;;;;;;;8.32;96.46;95620.63;5075385;28;20429;-66
2020/12/13 05:06:22;;;;;;;4.20;3.80;;;;;;;8.30;96.71;95624.50;5083057;28;20173;-67
2020/12/13 05:08:48;;;;;;;3.57;3.33;;;;;;;8.50;96.21;95621.53;5095868;28;20162;-66
2020/12/13 05:11:14;;;;;;;4.00;3.70;;;;;;;8.46;95.62;95626.41;5091101;28;20511;-66
2020/12/13 05:13:40;;;;;;;3.63;3.33;;;;;;;8.50;95.32;95630.16;5075781;28;20577;-66
2020/12/13 05:16:10;;;;;;;3.50;3.30;;;;;;;8.61;94.85;95639.00;5075457;28;20874;-66
2020/12/13 05:18:42;;;;;;;4.03;3.67;;;;;;;8.37;95.63;95642.72;5075157;28;20886;-66
2020/12/13 05:21:07;;;;;;;3.23;3.03;;;;;;;8.35;95.83;95648.19;5092713;28;20423;-67
2020/12/13 05:23:34;;;;;;;3.87;3.57;;;;;;;8.47;95.22;95643.72;5095763;28;20400;-66
2020/12/13 05:26:00;;;;;;;3.83;3.53;;;;;;;8.43;95.37;95649.63;5088882;28;20220;-66
2020/12/13 05:28:26;;;;;;;4.43;3.30;;;;;;;8.39;95.87;95649.28;5074863;28;20498;-66
2020/12/13 05:30:52;;;;;;;4.03;3.03;;;;;;;8.49;95.21;95652.16;5074020;28;20507;-66
2020/12/13 05:33:30;;;;;;;3.63;3.33;;;;;;;8.50;95.54;95655.56;5075497;28;20399;-66
2020/12/13 05:36:05;;;;;;;3.57;3.27;;;;;;;8.52;95.44;95656.91;5055446;28;20417;-66
2020/12/13 05:38:35;;;;;;;3.53;3.23;;;;;;;8.53;94.56;95658.53;5093841;28;20457;-66
2020/12/13 05:41:03;;;;;;;3.20;2.93;;;;;;;8.41;95.10;95667.41;5088449;28;20452;-66
2020/12/13 05:43:32;;;;;;;2.90;2.70;;;;;;;8.52;94.80;95661.34;5075215;28;20403;-66
2020/12/13 05:53:33;;;;;;;3.20;3.00;;;;;;;8.48;95.03;95675.94;5075087;28;20168;-67
2020/12/13 05:55:58;;;;;;;3.90;3.60;;;;;;;8.50;94.99;95685.13;5074590;28;20424;-67
2020/12/13 05:58:25;;;;;;;3.40;3.20;;;;;;;8.61;94.27;95683.53;5074454;28;20193;-66
2020/12/13 06:00:52;;;;;;;3.57;3.37;;;;;;;8.73;93.64;95677.25;5074742;28;20280;-66
2020/12/13 06:03:33;;;;;;;3.03;2.83;;;;;;;8.62;93.68;95690.38;5074859;28;20879;-66
2020/12/13 06:06:06;;;;;;;5.30;3.10;;;;;;;8.52;94.58;95692.75;5090443;28;20419;-66
2020/12/13 06:09:01;;;;;;;3.23;2.97;;;;;;;8.46;93.96;95691.06;5094397;28;20451;-66
2020/12/13 06:11:34;;;;;;;3.00;2.77;;;;;;;8.57;94.50;95695.50;5073152;28;20436;-66
2020/12/13 06:14:07;;;;;;;3.13;2.83;;;;;;;8.57;93.89;95706.75;5074403;28;20790;-66
2020/12/13 06:16:33;;;;;;;3.47;3.17;;;;;;;8.50;93.88;95713.94;5074109;28;20774;-66
2020/12/13 06:18:59;;;;;;;3.50;3.20;;;;;;;8.38;94.44;95704.50;5075099;28;20458;-66
2020/12/13 06:21:24;;;;;;;3.17;2.97;;;;;;;8.29;95.32;95712.69;5074217;28;20900;-66
2020/12/13 06:23:53;;;;;;;3.17;2.87;;;;;;;8.29;95.23;95711.91;5075122;28;20187;-66
2020/12/13 06:26:19;;;;;;;3.50;3.30;;;;;;;8.33;94.89;95715.66;5073726;28;20696;-67
2020/12/13 06:28:45;;;;;;;3.23;2.93;;;;;;;8.43;94.76;95704.59;5086864;28;20469;-66
2020/12/13 06:31:15;;;;;;;2.90;2.70;;;;;;;8.24;94.93;95717.03;5094413;28;20492;-66
2020/12/13 06:33:41;;;;;;;2.80;2.60;;;;;;;8.05;96.46;95715.47;5084489;28;20431;-66
2020/12/13 06:36:08;;;;;;;2.67;2.43;;;;;;;8.18;95.35;95717.88;5073831;28;20407;-66
2020/12/13 06:38:34;;;;;;;3.20;2.70;;;;;;;8.20;95.26;95718.47;5089392;28;20513;-66
2020/12/13 06:41:12;;;;;;;3.03;2.83;;;;;;;8.30;94.63;95721.31;5094171;28;20439;-66
2020/12/13 06:43:56;;;;;;;2.80;2.60;;;;;;;8.01;95.31;95725.59;5093773;28;20934;-66
2020/12/13 06:46:26;;;;;;;2.97;2.77;;;;;;;7.97;96.57;95729.66;5079237;28;20937;-67
2020/12/13 06:48:52;;;;;;;2.83;2.63;;;;;;;8.11;95.50;95738.13;5073622;28;20423;-66
2020/12/13 06:51:48;;;;;;;2.77;2.57;;;;;;;8.09;95.54;95742.78;5072621;28;20498;-67
2020/12/13 06:54:16;;;;;;;2.70;2.00;;;;;;;8.06;95.44;95744.00;5060877;28;20429;-66
2020/12/13 06:56:42;;;;;;;2.87;2.63;;;;;;;8.23;95.41;95752.00;5075244;28;20912;-66
2020/12/13 06:59:10;;;;;;;2.27;2.17;;;;;;;8.07;95.78;95747.44;5092287;28;20864;-66
2020/12/13 07:01:40;;;;;;;2.40;2.23;;;;;;;8.02;95.33;95757.78;5091384;28;20473;-66
2020/12/13 07:04:24;;;;;;;2.60;2.40;;;;;;;8.10;95.48;95758.25;5077387;28;20829;-66
2020/12/13 07:06:59;;;;;;;3.20;2.50;;;;;;;8.17;95.00;95761.56;5073050;28;20440;-66
2020/12/13 07:09:25;;;;;;;4.10;1.87;;;;;;;8.16;95.86;95767.03;5073766;28;20497;-66
2020/12/13 07:11:52;;;;;;;2.60;1.60;;;;;;;7.88;97.38;95767.63;5073533;28;20403;-66
2020/12/13 07:14:21;;;;;;;2.10;2.00;;;;;;;8.04;95.97;95781.91;5073466;28;20397;-66
2020/12/13 07:16:57;;;;;;;2.33;2.13;;;;;;;8.06;96.27;95785.09;5084592;28;20514;-66
2020/12/13 07:19:24;;;;;;;2.23;2.00;;;;;;;7.88;97.44;95782.53;5073473;28;20465;-67
2020/12/13 07:21:51;;;;;;;2.17;1.83;;;;;;;8.09;96.65;95777.59;5073224;28;20743;-67
2020/12/13 07:24:16;;;;;;;2.00;1.90;;;;;;;8.06;96.68;95788.50;5073424;28;20506;-66
2020/12/13 07:26:42;;;;;;;2.00;1.90;;;;;;;8.27;95.93;95787.22;5075684;28;20503;-67
2020/12/13 07:29:17;;;;;;;2.07;1.97;;;;;;;8.11;96.53;95801.72;5073170;28;20219;-66
2020/12/13 07:31:46;;;;;;;2.77;2.57;;;;;;;8.11;96.73;95795.69;5073424;28;20246;-66
2020/12/13 07:34:12;;;;;;;3.67;2.37;;;;;;;7.97;97.64;95810.75;5073009;28;20418;-67
2020/12/13 07:36:38;;;;;;;2.80;2.57;;;;;;;7.96;98.21;95811.78;5072769;28;20450;-67
2020/12/13 07:39:05;;;;;;;3.73;2.33;;;;;;;7.98;98.16;95814.97;5073458;28;20458;-66
2020/12/13 07:41:31;;;;;;;2.90;2.70;;;;;;;7.96;99.03;95813.59;5073166;28;20251;-66
2020/12/13 07:44:00;;;;;;;3.13;2.13;;;;;;;7.91;99.28;95821.31;5073130;28;20504;-67
2020/12/13 07:46:28;;;;;;;2.20;2.00;;;;;;;7.89;99.17;95826.78;5072823;28;20402;-67
2020/12/13 07:49:10;;;;;;;2.80;2.60;;;;;;;8.02;99.45;95831.84;5071588;28;20477;-66
2020/12/13 07:51:59;;;;;;;2.30;2.20;;;;;;;8.04;98.87;95823.75;5073246;28;20494;-66
2020/12/13 07:54:27;;;;;;;2.13;2.03;;;;;;;8.00;99.35;95836.47;5085838;28;20427;-66
2020/12/13 07:57:10;;;;;;;3.97;2.13;;;;;;;7.99;99.87;95841.94;5092774;28;20444;-66
2020/12/13 07:59:36;;;;;;;4.50;2.37;;;;;;;8.16;99.51;95843.69;5093128;28;20530;-67
2020/12/13 08:02:01;;;;;;;2.50;2.30;;;;;;;8.20;98.49;95847.47;5093035;28;20957;-67
2020/12/13 08:04:36;;;;;;;2.90;2.37;;;;;;;8.01;99.82;95847.72;5093097;28;20533;-67
2020/12/13 08:07:06;;;;;;;2.97;2.70;;;;;;;7.97;99.94;95847.38;5088441;28;20527;-67
2020/12/13 08:09:33;;;;;;;2.40;2.20;;;;;;;7.92;100.00;95852.47;5072759;28;20479;-66
2020/12/13 08:11:58;;;;;;;4.40;2.40;;;;;;;7.78;100.00;95860.72;5072971;28;20736;-66
2020/12/13 08:14:25;;;;;;;3.80;3.40;;;;;;;8.00;100.00;95861.84;5073096;28;20492;-66
2020/12/13 08:16:55;;;;;;;3.10;2.80;;;;;;;7.87;100.00;95862.00;5072111;28;20228;-67
2020/12/13 08:19:33;;;;;;;3.10;2.90;;;;;;;7.81;100.00;95863.69;5072540;28;20820;-67
2020/12/13 08:22:20;;;;;;;3.13;2.93;;;;;;;7.94;100.00;95863.53;5081954;28;20504;-66
2020/12/13 08:24:59;;;;;;;3.20;2.83;;;;;;;8.08;99.90;95861.53;5089333;28;20414;-66
2020/12/13 08:27:28;;;;;;;4.80;4.40;;;;;;;8.02;100.00;95872.88;5052098;28;20418;-68
2020/12/13 08:29:53;;;;;;;5.00;4.10;;;;;;;8.07;99.52;95870.38;5060439;28;20431;-66
2020/12/13 08:32:22;;;;;;;4.07;3.77;;;;;;;8.23;98.95;95861.91;5080273;28;20420;-68
2020/12/13 08:34:47;;;;;;;6.00;5.20;;;;;;;8.38;97.99;95874.63;5076215;28;20643;-68
2020/12/13 08:37:13;;;;;;;3.63;3.33;;;;;;;8.53;97.25;95870.56;5075908;28;20470;-68
2020/12/13 08:39:38;;;;;;;3.80;3.50;;;;;;;8.41;96.75;95871.56;5076021;28;20212;-68
2020/12/13 08:42:06;;;;;;;3.67;3.37;;;;;;;8.52;96.42;95866.34;5076287;28;20167;-65
2020/12/13 08:44:41;;;;;;;6.00;5.50;;;;;;;8.62;95.91;95869.22;5076068;28;20254;-67
2020/12/13 08:47:08;;;;;;;7.80;5.93;;;;;;;8.54;95.81;95869.53;5075549;28;20821;-66
2020/12/13 08:49:37;;;;;;;4.83;4.43;;;;;;;8.53;95.31;95867.97;5075998;28;20552;-68
2020/12/13 08:52:19;;;;;;;4.60;4.27;;;;;;;8.45;96.03;95877.94;5076245;28;20409;-68
2020/12/13 08:54:48;;;;;;;10.03;5.80;;;;;;;8.76;94.80;95880.28;5076292;28;20871;-66
2020/12/13 08:57:25;;;;;;;6.60;6.10;;;;;;;8.49;94.87;95887.75;5075431;28;20404;-68
2020/12/13 09:00:01;;;;;;;5.40;4.40;;;;;;;8.74;93.90;95887.56;5087623;28;20522;-66
2020/12/13 09:02:27;;;;;;;6.23;4.50;;;;;;;8.98;93.27;95891.81;5075541;28;20422;-66
2020/12/13 09:04:57;;;;;;;5.20;4.70;;;;;;;9.00;92.57;95905.47;5076762;28;20462;-68
2020/12/13 09:07:23;;;;;;;8.07;6.57;;;;;;;8.95;92.07;95910.63;5075529;28;20471;-69
2020/12/13 09:09:48;;;;;;;5.90;4.40;;;;;;;8.85;92.75;95912.97;5075701;28;20431;-68
2020/12/13 09:12:19;;;;;;;11.50;8.37;;;;;;;8.64;92.51;95916.91;5076721;28;20644;-66
2020/12/13 09:14:44;;;;;;;11.13;7.83;;;;;;;8.52;93.27;95923.13;5074397;28;20175;-68
2020/12/13 09:17:10;;;;;;;22.37;18.47;;;;;;;8.54;93.65;95927.13;5074859;28;20897;-68
2020/12/13 09:19:48;;;;;;;21.80;17.17;;;;;;;8.71;92.68;95930.72;5075578;28;20205;-68
2020/12/13 09:22:20;;;;;;;28.30;20.53;;;;;;;9.03;91.98;95929.41;5075677;28;20169;-66
2020/12/13 09:24:45;;;;;;;8.10;7.10;;;;;;;9.12;92.02;95935.91;5079094;28;20418;-65
2020/12/13 09:27:18;;;;;;;11.63;8.77;;;;;;;9.29;89.67;95936.03;5095131;28;20423;-68
2020/12/13 09:29:47;;;;;;;34.60;26.17;;;;;;;9.35;89.22;95940.34;5095561;28;20217;-68
2020/12/13 09:32:14;;;;;;;38.43;28.47;;;;;;;9.32;89.33;95954.72;5075764;28;20911;-68
2020/12/13 09:34:40;;;;;;;41.83;29.20;;;;;;;9.27;88.96;95954.63;5075410;28;20424;-69
2020/12/13 09:37:11;;;;;;;11.63;7.60;;;;;;;9.10;89.36;95956.31;5076063;28;20808;-67
2020/12/13 09:39:37;;;;;;;47.67;29.27;;;;;;;9.15;89.35;95960.84;5075016;28;20452;-68
2020/12/13 09:42:04;;;;;;;13.90;10.63;;;;;;;9.45;89.14;95958.13;5074435;28;20407;-65
2020/12/13 09:44:29;;;;;;;34.10;26.47;;;;;;;9.51;89.22;95968.50;5075263;28;20250;-68
2020/12/13 09:46:57;;;;;;;5.90;4.87;;;;;;;9.64;88.51;95963.03;5074495;28;20513;-68
2020/12/13 09:49:23;;;;;;;15.70;11.73;;;;;;;9.83;88.14;95961.09;5070599;28;20957;-67
2020/12/13 09:51:49;;;;;;;48.20;34.63;;;;;;;9.61;86.74;95960.88;5085296;28;20437;-66
2020/12/13 09:54:14;;;;;;;45.63;31.23;;;;;;;9.66;86.32;95963.59;5082157;28;20425;-66
2020/12/13 09:56:39;;;;;;;96.27;70.90;;;;;;;9.50;86.07;95963.50;5071077;28;20181;-68
2020/12/13 09:59:05;;;;;;;11.80;9.37;;;;;;;9.14;87.81;95960.06;5071208;28;20195;-68
2020/12/13 10:01:30;;;;;;;19.73;13.90;;;;;;;9.15;87.08;95963.47;5070844;28;20178;-68
2020/12/13 10:03:56;;;;;;;22.07;14.03;;;;;;;9.38;87.05;95965.31;5071223;28;20673;-68
2020/12/13 10:11:28;;;;;;;4.40;2.83;;;;;;;9.20;84.17;95961.00;5084486;28;20445;-67
2020/12/13 10:13:54;;;;;;;2.40;2.20;;;;;;;9.18;83.52;95966.47;5091296;28;20488;-68
2020/12/13 10:16:19;;;;;;;2.03;1.93;;;;;;;9.11;83.55;95965.75;5089645;28;20855;-66
2020/12/13 10:18:45;;;;;;;2.20;2.03;;;;;;;9.32;82.13;95973.09;5090950;28;20601;-66
2020/12/13 10:21:10;;;;;;;2.47;1.93;;;;;;;9.38;83.45;95979.25;5091153;28;20582;-63
2020/12/13 10:23:37;;;;;;;2.47;2.27;;;;;;;9.40;84.01;95979.00;5082489;28;20896;-63
2020/12/13 10:26:03;;;;;;;3.63;2.60;;;;;;;9.42;83.00;95971.72;5081189;28;20651;-62
2020/12/13 10:28:28;;;;;;;2.23;1.80;;;;;;;9.46;83.55;95970.25;5070256;28;20425;-63
2020/12/13 10:30:53;;;;;;;2.90;2.70;;;;;;;9.41;83.51;95970.91;5070526;28;20219;-62
2020/12/13 10:33:19;;;;;;;2.50;2.30;;;;;;;9.54;82.45;95978.56;5071016;28;20180;-61
2020/12/13 10:35:45;;;;;;;2.30;2.10;;;;;;;9.48;82.30;95966.34;5070192;28;20572;-63
2020/12/13 10:38:11;;;;;;;2.20;2.00;;;;;;;9.48;82.54;95974.22;5070192;28;20174;-62
2020/12/13 10:40:40;;;;;;;1.70;1.27;;;;;;;9.55;81.66;95971.50;5089887;28;20499;-62
2020/12/13 10:43:05;;;;;;;2.60;1.50;;;;;;;9.54;81.56;95967.25;5090713;28;20486;-63
2020/12/13 10:45:31;;;;;;;1.83;1.73;;;;;;;9.75;80.97;95969.28;5090717;28;20906;-63
2020/12/13 10:47:57;;;;;;;2.00;1.57;;;;;;;9.83;80.45;95963.72;5074738;28;20341;-63
2020/12/13 10:50:22;;;;;;;1.80;1.70;;;;;;;9.73;80.71;95969.53;5072466;28;20193;-68
2020/12/13 10:52:48;;;;;;;2.10;1.70;;;;;;;9.52;81.79;95971.94;5058147;28;20167;-69
2020/12/13 10:55:15;;;;;;;3.73;2.00;;;;;;;9.61;81.93;95971.38;5070286;28;20537;-67
2020/12/13 10:57:42;;;;;;;2.20;1.97;;;;;;;9.74;80.98;95979.00;5069890;28;20179;-68
2020/12/13 11:00:07;;;;;;;2.60;2.23;;;;;;;9.73;81.04;95976.63;5069287;28;20485;-67
2020/12/13 11:02:33;;;;;;;2.43;1.90;;;;;;;9.66;81.20;95981.97;5070213;28;20874;-66
2020/12/13 11:04:58;;;;;;;3.37;1.80;;;;;;;9.60;81.61;95974.22;5070194;28;20183;-67
2020/12/13 11:07:23;;;;;;;1.80;1.70;;;;;;;9.66;81.83;95975.91;5069385;28;20261;-68
2020/12/13 11:09:49;;;;;;;1.87;1.77;;;;;;;9.54;81.96;95969.88;5085510;28;20207;-66
2020/12/13 11:12:14;;;;;;;1.93;1.53;;;;;;;9.72;81.75;95977.63;5089896;28;20828;-67
2020/12/13 11:14:39;;;;;;;2.10;2.00;;;;;;;9.80;81.09;95977.28;5090084;28;20176;-63
2020/12/13 11:17:05;;;;;;;2.90;1.80;;;;;;;9.82;81.19;95983.88;5078348;28;20177;-62
2020/12/13 11:19:30;;;;;;;2.03;1.83;;;;;;;9.79;80.36;95980.94;5070895;28;20928;-60
2020/12/13 11:21:57;;;;;;;3.53;2.00;;;;;;;9.93;79.71;95979.66;5082075;28;20199;-63
2020/12/13 11:24:22;;;;;;;2.47;2.30;;;;;;;9.82;79.90;95985.75;5068241;28;20183;-63
2020/12/13 11:26:48;;;;;;;1.97;1.63;;;;;;;9.81;80.06;95982.31;5069401;28;20883;-65
2020/12/13 11:29:13;;;;;;;2.37;2.17;;;;;;;9.83;78.71;95985.50;5069468;28;20277;-63
2020/12/13 11:31:39;;;;;;;2.23;2.03;;;;;;;9.85;78.74;95978.19;5069744;28;20175;-63
2020/12/13 11:34:05;;;;;;;1.90;1.80;;;;;;;9.80;79.46;95980.69;5069683;28;20186;-62
2020/12/13 11:36:30;;;;;;;1.73;1.63;;;;;;;9.92;79.45;95985.94;5069076;28;20439;-63
2020/12/13 11:38:56;;;;;;;3.33;2.07;;;;;;;10.00;79.53;95981.13;5076560;28;20199;-64
2020/12/13 11:41:26;;;;;;;2.73;1.73;;;;;;;9.93;79.07;95983.06;5089942;28;20214;-64
2020/12/13 11:43:51;;;;;;;2.63;2.27;;;;;;;9.92;78.84;95989.38;5079341;28;20178;-63
2020/12/13 11:46:17;;;;;;;3.10;1.80;;;;;;;9.88;79.24;95982.97;5069482;28;20783;-65
2020/12/13 11:48:42;;;;;;;2.60;1.70;;;;;;;10.02;79.13;95989.56;5068998;28;20262;-64
2020/12/13 11:51:07;;;;;;;3.57;2.00;;;;;;;10.00;78.61;95993.47;5069791;28;20182;-63
2020/12/13 11:53:33;;;;;;;1.80;1.70;;;;;;;10.04;78.16;95992.75;5069656;28;20514;-64